SGU weather

St George Municipal Airport
St George, Utah, United States

Public forecast

Using degrees Fahrenheit for public forecast. Weather courtesy of forecast.io.

METAR (pilot weather report)

Retrieved 2018/07/19 17:56 UTC (33 minutes ago):

KSGU 191756Z AUTO VRB05KT 10SM CLR 36/16 A3005 RMK AO2 SLP128 6//// T03560161 10356 20283 58005 PNO $

TAF (pilot weather forecast)

Retrieved 2018/07/19 18:30 UTC (0 seconds ago):

TAF KSGU 191728Z 1918/2018 VRB05KT P6SM SCT150 FM192100 24010G18KT P6SM SCT080 BKN150 FM200100 14006KT P6SM VCSH SCT080 BKN120 FM200800 VRB04KT P6SM SCT080 BKN150